Time;durP1;ratioP1;P1;durP2;ratioP2;P2;SDS_P1;SDS_P2;PMS_P1;PMS_P2;Temp;Humidity;BMP_temperature;BMP_pressure;BME280_temperature;BME280_humidity;BME280_pressure;Samples;Min_cycle;Max_cycle;Signal;HPM_P1;HPM_P2
2022/03/07 00:01:36;;;;;;;;;48.00;39.75;;;;;6.52;43.77;101854.16;5116189;27;45507;-70
2022/03/07 00:04:02;;;;;;;;;55.25;43.25;;;;;6.52;43.87;101844.44;5114379;27;45331;-69
2022/03/07 00:06:28;;;;;;;;;58.00;44.75;;;;;6.53;43.96;101845.34;5109792;27;45513;-70
2022/03/07 00:08:53;;;;;;;;;53.75;41.75;;;;;6.53;43.81;101837.38;5106443;27;45511;-69
2022/03/07 00:11:20;;;;;;;;;52.75;41.75;;;;;6.51;43.89;101837.28;5110544;27;47046;-70
2022/03/07 00:13:46;;;;;;;;;47.50;41.50;;;;;6.50;43.71;101829.25;5106092;27;45581;-71
2022/03/07 00:16:11;;;;;;;;;44.25;39.75;;;;;6.46;43.92;101834.34;5111940;27;45561;-70
2022/03/07 00:18:37;;;;;;;;;57.25;43.00;;;;;6.42;44.07;101842.97;5111944;27;46219;-69
2022/03/07 00:21:05;;;;;;;;;57.00;43.50;;;;;6.21;44.23;101809.81;5093568;27;46237;-68
2022/03/07 00:23:30;;;;;;;;;59.00;43.50;;;;;6.36;44.06;101837.28;5115494;27;45455;-69
2022/03/07 00:25:56;;;;;;;;;55.00;43.25;;;;;6.37;44.79;101838.19;5111237;27;45490;-70
2022/03/07 00:28:21;;;;;;;;;56.25;41.75;;;;;6.33;44.21;101845.06;5094252;27;45567;-70
2022/03/07 00:30:46;;;;;;;;;50.50;41.00;;;;;6.25;44.46;101841.00;5108385;27;45916;-68
2022/03/07 00:33:14;;;;;;;;;48.75;40.50;;;;;6.32;44.15;101840.59;5103467;27;45653;-70
2022/03/07 00:35:39;;;;;;;;;57.25;44.25;;;;;6.31;44.30;101852.00;5106596;27;45827;-69
2022/03/07 00:38:05;;;;;;;;;51.75;40.75;;;;;6.17;44.64;101834.31;5096857;27;45457;-70
2022/03/07 00:40:30;;;;;;;;;53.75;41.00;;;;;6.24;44.63;101852.47;5112833;27;46184;-70
2022/03/07 00:42:56;;;;;;;;;48.00;38.25;;;;;6.16;44.58;101843.13;5112197;27;45368;-70
2022/03/07 00:45:21;;;;;;;;;46.25;39.00;;;;;6.19;44.91;101835.34;5111265;27;45351;-69
2022/03/07 00:47:46;;;;;;;;;52.50;42.25;;;;;6.22;44.87;101846.13;5115372;27;46022;-69
2022/03/07 00:50:12;;;;;;;;;46.50;38.50;;;;;6.19;44.85;101836.25;5111336;27;45617;-69
2022/03/07 00:52:37;;;;;;;;;49.75;38.50;;;;;6.12;44.84;101838.44;5105441;27;45536;-69
2022/03/07 00:55:03;;;;;;;;;48.25;38.50;;;;;5.53;44.46;101734.00;5106741;27;45864;-69
2022/03/07 00:57:28;;;;;;;;;56.75;43.25;;;;;6.06;45.13;101839.88;5105551;27;45784;-69
2022/03/07 00:59:55;;;;;;;;;53.75;42.00;;;;;6.11;45.15;101847.22;5114487;27;45490;-69
2022/03/07 01:02:20;;;;;;;;;54.75;40.50;;;;;6.07;44.92;101841.72;5110499;27;45436;-70
2022/03/07 01:04:45;;;;;;;;;44.00;38.25;;;;;6.01;45.21;101835.13;5112166;27;45479;-70
2022/03/07 01:07:11;;;;;;;;;51.50;40.00;;;;;6.05;44.86;101846.00;5118117;27;45860;-70
2022/03/07 01:09:36;;;;;;;;;42.75;38.50;;;;;5.95;45.20;101838.25;5111317;27;46090;-70
2022/03/07 01:12:02;;;;;;;;;48.00;39.50;;;;;5.99;45.28;101837.69;5120966;27;45384;-70
2022/03/07 01:14:28;;;;;;;;;56.75;40.75;;;;;5.80;45.13;101824.97;5124765;27;45338;-68
2022/03/07 01:16:53;;;;;;;;;51.75;37.75;;;;;5.81;45.21;101828.56;5121292;27;45368;-70
2022/03/07 01:19:19;;;;;;;;;51.75;40.25;;;;;5.68;45.66;101805.63;5122026;27;45907;-68
2022/03/07 01:21:44;;;;;;;;;48.75;38.00;;;;;5.91;45.14;101841.56;5123119;27;45266;-70
2022/03/07 01:24:10;;;;;;;;;58.25;42.75;;;;;5.82;45.41;101819.75;5130116;27;45227;-70
2022/03/07 01:26:36;;;;;;;;;55.00;40.00;;;;;5.79;45.38;101828.44;5128215;27;45372;-70
2022/03/07 01:29:01;;;;;;;;;41.75;36.50;;;;;5.80;45.43;101832.91;5126937;27;46193;-69
2022/03/07 01:31:27;;;;;;;;;52.00;40.00;;;;;5.67;45.69;101817.06;5124503;27;45109;-70
2022/03/07 01:33:52;;;;;;;;;42.75;38.50;;;;;5.70;45.86;101822.56;5125171;27;45534;-69
2022/03/07 01:36:18;;;;;;;;;49.75;39.00;;;;;5.50;45.75;101790.38;5125446;27;45313;-69
2022/03/07 01:38:43;;;;;;;;;49.25;38.75;;;;;5.80;45.21;101834.66;5115361;27;45629;-70
2022/03/07 01:41:08;;;;;;;;;54.75;40.25;;;;;5.73;45.63;101822.75;5117616;27;45894;-70
2022/03/07 01:43:34;;;;;;;;;52.75;40.50;;;;;5.56;45.31;101802.19;5121472;27;45836;-68
2022/03/07 01:45:59;;;;;;;;;47.75;38.00;;;;;5.68;45.91;101816.25;5124849;27;45550;-71
2022/03/07 01:48:25;;;;;;;;;57.25;38.50;;;;;5.75;45.79;101825.50;5127212;27;45642;-70
2022/03/07 01:50:50;;;;;;;;;44.75;37.00;;;;;5.59;45.49;101805.03;5128273;27;45402;-70
2022/03/07 01:53:17;;;;;;;;;49.25;39.00;;;;;5.73;45.81;101830.69;5124100;27;45641;-69
2022/03/07 01:55:42;;;;;;;;;49.50;37.00;;;;;5.58;45.92;101811.19;5126247;27;45558;-70
2022/03/07 01:58:08;;;;;;;;;42.25;34.50;;;;;5.69;45.55;101826.00;5125412;27;45126;-69
2022/03/07 02:00:33;;;;;;;;;50.25;37.25;;;;;5.68;45.46;101813.59;5117803;27;45370;-69
2022/03/07 02:02:58;;;;;;;;;52.50;37.75;;;;;5.66;45.78;101816.16;5118572;27;45574;-69
2022/03/07 02:05:24;;;;;;;;;41.00;36.50;;;;;5.54;45.81;101799.44;5121296;27;45452;-70
2022/03/07 02:07:50;;;;;;;;;45.00;35.25;;;;;5.59;45.58;101802.41;5125922;27;45585;-70
2022/03/07 02:10:15;;;;;;;;;50.50;38.25;;;;;5.50;45.93;101800.97;5124901;27;45259;-70
2022/03/07 02:12:41;;;;;;;;;49.25;38.25;;;;;5.53;45.70;101808.22;5108202;27;45643;-70
2022/03/07 02:15:07;;;;;;;;;51.25;31.75;;;;;5.29;46.08;101771.38;5125304;27;45350;-70
2022/03/07 02:17:33;;;;;;;;;51.50;36.00;;;;;5.50;46.41;101806.28;5126861;27;45403;-70
2022/03/07 02:19:59;;;;;;;;;44.50;37.00;;;;;5.49;45.99;101806.19;5110697;27;45575;-70
2022/03/07 02:22:24;;;;;;;;;46.75;37.75;;;;;5.50;46.56;101800.09;5118836;27;45475;-69
2022/03/07 02:24:49;;;;;;;;;47.75;38.00;;;;;5.47;45.96;101813.13;5116080;27;45698;-69
2022/03/07 02:27:18;;;;;;;;;39.25;36.00;;;;;5.43;45.87;101798.78;5116783;27;45988;-70
2022/03/07 02:29:47;;;;;;;;;44.25;36.25;;;;;5.43;46.54;101797.84;5120423;27;45460;-69
2022/03/07 02:32:13;;;;;;;;;50.50;36.75;;;;;5.42;46.02;101788.06;5123241;27;45504;-69
2022/03/07 02:34:38;;;;;;;;;41.75;37.00;;;;;5.22;46.09;101757.66;5124532;27;45555;-69
2022/03/07 02:37:04;;;;;;;;;44.00;35.00;;;;;5.34;46.45;101780.53;5123693;27;45793;-70
2022/03/07 02:39:30;;;;;;;;;43.75;38.00;;;;;5.28;46.28;101765.97;5127070;27;45124;-71
2022/03/07 02:41:55;;;;;;;;;40.00;34.50;;;;;5.39;45.97;101786.13;5122944;27;45357;-70
2022/03/07 02:44:21;;;;;;;;;43.50;37.50;;;;;5.29;46.14;101773.13;5121061;27;45475;-70
2022/03/07 02:46:46;;;;;;;;;46.75;34.75;;;;;5.35;46.20;101781.47;5116080;27;45719;-69
2022/03/07 02:49:13;;;;;;;;;51.75;39.00;;;;;5.32;45.98;101776.88;5118668;27;45525;-70
2022/03/07 02:51:38;;;;;;;;;39.50;33.50;;;;;5.28;46.17;101777.50;5125826;27;45459;-70
2022/03/07 02:54:04;;;;;;;;;32.25;24.75;;;;;5.27;46.36;101766.81;5124971;27;45541;-68
2022/03/07 02:56:29;;;;;;;;;45.75;37.00;;;;;5.29;45.93;101773.13;5122835;27;45272;-68
2022/03/07 02:58:54;;;;;;;;;44.75;36.75;;;;;5.17;46.58;101760.00;5131074;27;45499;-70
2022/03/07 03:01:20;;;;;;;;;34.75;31.75;;;;;5.27;46.25;101762.41;5129915;27;45369;-70
2022/03/07 03:03:45;;;;;;;;;45.00;34.25;;;;;5.28;46.56;101774.88;5125639;27;45284;-70
2022/03/07 03:06:11;;;;;;;;;37.50;34.75;;;;;5.26;46.34;101776.50;5128740;27;45423;-69
2022/03/07 03:08:36;;;;;;;;;41.25;35.25;;;;;5.27;46.34;101772.13;5098269;27;45595;-70
2022/03/07 03:11:02;;;;;;;;;41.25;37.50;;;;;5.20;46.47;101760.22;5114757;27;45274;-70
2022/03/07 03:13:28;;;;;;;;;50.50;38.75;;;;;5.10;46.61;101748.09;5123090;27;45235;-69
2022/03/07 03:15:54;;;;;;;;;39.75;36.25;;;;;5.22;46.70;101776.19;5128067;27;45910;-70
2022/03/07 03:18:20;;;;;;;;;42.75;31.50;;;;;4.69;46.50;101674.84;5130746;27;45218;-70
2022/03/07 03:20:47;;;;;;;;;37.25;36.00;;;;;5.17;46.70;101763.56;5126132;27;45237;-70
2022/03/07 03:23:13;;;;;;;;;44.50;35.00;;;;;5.20;46.80;101764.56;5130991;27;45115;-70
2022/03/07 03:25:39;;;;;;;;;48.25;34.25;;;;;5.17;46.69;101762.66;5138139;27;45774;-69
2022/03/07 03:28:05;;;;;;;;;34.25;33.75;;;;;5.13;47.08;101755.31;5130169;27;45426;-70
2022/03/07 03:30:31;;;;;;;;;29.25;28.50;;;;;5.08;46.52;101751.44;5125093;27;45209;-68
2022/03/07 03:32:56;;;;;;;;;42.00;31.50;;;;;5.10;46.92;101761.34;5099409;27;45562;-70
2022/03/07 03:35:22;;;;;;;;;27.75;27.75;;;;;5.07;46.58;101762.88;5104250;27;46533;-70
2022/03/07 03:37:47;;;;;;;;;40.00;35.75;;;;;4.47;46.77;101655.72;5129089;27;45194;-69
2022/03/07 03:40:13;;;;;;;;;44.75;33.25;;;;;5.09;46.91;101755.94;5130520;27;45307;-69
2022/03/07 03:42:39;;;;;;;;;42.50;34.50;;;;;5.06;46.26;101756.66;5129940;27;45546;-70
2022/03/07 03:45:08;;;;;;;;;42.25;34.50;;;;;4.87;47.10;101727.16;5129760;27;45449;-68
2022/03/07 03:47:41;;;;;;;;;37.00;31.25;;;;;5.01;46.81;101759.81;5130780;27;45188;-70
2022/03/07 03:50:10;;;;;;;;;38.50;31.75;;;;;5.01;46.82;101776.63;5130762;27;45049;-68
2022/03/07 03:52:35;;;;;;;;;45.50;36.75;;;;;4.90;47.19;101749.47;5127616;27;45408;-70
2022/03/07 03:55:03;;;;;;;;;37.75;36.00;;;;;4.93;46.98;101757.59;5110081;27;45599;-68
2022/03/07 03:57:29;;;;;;;;;39.50;33.75;;;;;5.02;46.94;101766.97;5122408;27;45420;-70
2022/03/07 03:59:55;;;;;;;;;42.50;34.00;;;;;4.93;46.95;101759.31;5130213;27;45500;-70
2022/03/07 04:02:21;;;;;;;;;41.00;33.00;;;;;4.92;46.97;101769.00;5134344;27;45460;-70
2022/03/07 04:04:46;;;;;;;;;37.25;33.50;;;;;4.57;47.07;101717.31;5136708;27;45629;-71
2022/03/07 04:07:11;;;;;;;;;44.75;36.00;;;;;4.70;47.30;101736.63;5130479;27;45374;-70
2022/03/07 04:09:37;;;;;;;;;47.75;36.00;;;;;4.82;47.06;101769.22;5131694;27;45626;-70
2022/03/07 04:12:02;;;;;;;;;35.00;30.50;;;;;4.77;47.38;101762.72;5127100;27;45301;-70
2022/03/07 04:14:28;;;;;;;;;47.75;38.75;;;;;4.82;47.96;101773.56;5123322;27;45501;-69
2022/03/07 04:16:54;;;;;;;;;36.75;32.25;;;;;4.77;47.56;101771.56;5119533;27;45405;-69
2022/03/07 04:19:20;;;;;;;;;47.50;35.25;;;;;4.67;47.15;101762.88;5118403;27;45637;-70
2022/03/07 04:21:45;;;;;;;;;44.50;37.75;;;;;4.71;47.50;101768.50;5121061;27;45490;-70
2022/03/07 04:24:12;;;;;;;;;43.00;34.00;;;;;4.69;48.07;101769.22;5129116;27;45185;-69
2022/03/07 04:26:38;;;;;;;;;38.00;35.00;;;;;4.65;47.60;101760.13;5129490;27;45495;-70
2022/03/07 04:29:07;;;;;;;;;32.00;30.25;;;;;4.70;47.65;101763.09;5127273;27;45385;-70
2022/03/07 04:31:43;;;;;;;;;38.25;33.00;;;;;4.48;47.56;101727.25;5137649;27;45399;-69
2022/03/07 04:34:09;;;;;;;;;37.25;32.25;;;;;4.72;47.40;101769.41;5128097;27;45946;-71
2022/03/07 04:36:37;;;;;;;;;45.00;36.75;;;;;4.71;48.04;101770.25;5126329;27;45147;-68
2022/03/07 04:39:08;;;;;;;;;45.25;36.00;;;;;4.65;47.41;101770.72;5121739;27;45698;-68
2022/03/07 04:41:34;;;;;;;;;47.25;37.00;;;;;4.51;47.63;101742.44;5116751;27;45937;-69
2022/03/07 04:44:00;;;;;;;;;40.00;34.25;;;;;4.66;47.67;101777.88;5121360;27;47268;-69
2022/03/07 04:46:26;;;;;;;;;42.75;34.50;;;;;4.57;48.38;101764.94;5136967;27;45827;-68
2022/03/07 04:48:51;;;;;;;;;47.00;31.25;;;;;4.64;47.47;101781.22;5127187;27;45192;-69
2022/03/07 04:51:16;;;;;;;;;33.50;28.50;;;;;4.42;47.88;101740.06;5125581;27;45459;-69
2022/03/07 04:53:42;;;;;;;;;38.50;33.50;;;;;4.59;47.96;101768.59;5129662;27;45678;-68
2022/03/07 04:56:08;;;;;;;;;34.25;30.50;;;;;4.55;47.92;101761.28;5126072;27;45350;-69
2022/03/07 04:58:33;;;;;;;;;49.00;36.75;;;;;4.67;47.74;101781.41;5128928;27;45165;-70
2022/03/07 05:00:59;;;;;;;;;42.00;34.00;;;;;4.60;48.26;101781.03;5119087;27;45432;-67
2022/03/07 05:03:24;;;;;;;;;46.50;36.00;;;;;4.31;47.72;101744.66;5122362;27;45980;-68
2022/03/07 05:05:50;;;;;;;;;44.25;35.75;;;;;4.51;48.20;101783.03;5121083;27;45476;-69
2022/03/07 05:08:15;;;;;;;;;36.00;31.00;;;;;4.53;48.17;101789.34;5126168;27;45481;-69
2022/03/07 05:10:41;;;;;;;;;38.50;31.00;;;;;4.51;48.22;101783.03;5130022;27;45157;-70
2022/03/07 05:13:06;;;;;;;;;34.00;30.50;;;;;4.50;48.19;101778.56;5124744;27;45679;-70
2022/03/07 05:15:32;;;;;;;;;47.25;34.25;;;;;4.50;48.12;101775.91;5128499;27;45354;-68
2022/03/07 05:17:57;;;;;;;;;43.50;36.25;;;;;4.48;48.63;101784.56;5126432;27;45720;-69
2022/03/07 05:20:25;;;;;;;;;31.75;26.50;;;;;4.40;47.99;101781.41;5125250;27;45100;-68
2022/03/07 05:22:50;;;;;;;;;38.75;30.75;;;;;4.32;48.74;101777.31;5119736;27;46359;-70
2022/03/07 05:25:17;;;;;;;;;39.00;35.50;;;;;4.21;48.75;101774.88;5118403;27;45249;-69
2022/03/07 05:27:44;;;;;;;;;45.00;37.50;;;;;4.25;48.42;101774.25;5116779;27;45537;-69
2022/03/07 05:30:15;;;;;;;;;38.25;33.00;;;;;4.30;48.42;101786.88;5125260;27;45521;-70
2022/03/07 05:32:46;;;;;;;;;41.50;33.00;;;;;3.76;48.60;101685.34;5130791;27;45416;-70
2022/03/07 05:35:12;;;;;;;;;39.50;34.50;;;;;4.28;48.32;101781.47;5126742;27;45317;-68
2022/03/07 05:37:38;;;;;;;;;42.00;36.75;;;;;4.10;48.96;101759.97;5131712;27;45907;-70
2022/03/07 05:40:06;;;;;;;;;42.50;37.50;;;;;4.20;48.34;101773.00;5125316;27;45196;-69
2022/03/07 05:42:33;;;;;;;;;39.75;29.00;;;;;4.23;48.64;101783.81;5127274;27;45676;-70
2022/03/07 05:44:58;;;;;;;;;45.25;36.00;;;;;4.19;49.04;101789.72;5123577;27;45048;-69
2022/03/07 05:47:23;;;;;;;;;34.25;29.75;;;;;4.02;48.98;101743.56;5115739;27;45459;-69
2022/03/07 05:49:48;;;;;;;;;40.25;37.00;;;;;4.18;48.75;101782.59;5116275;27;45610;-69
2022/03/07 05:52:14;;;;;;;;;38.25;31.75;;;;;4.04;48.57;101768.41;5121383;27;49586;-69
2022/03/07 05:54:39;;;;;;;;;42.25;31.00;;;;;4.15;49.02;101789.41;5108696;27;45083;-68
2022/03/07 05:57:04;;;;;;;;;36.75;34.00;;;;;4.13;49.39;101791.03;5128510;27;45308;-69
2022/03/07 05:59:30;;;;;;;;;39.00;35.25;;;;;4.07;49.25;101778.28;5111001;27;45292;-70
2022/03/07 06:01:55;;;;;;;;;42.25;33.75;;;;;4.12;48.92;101774.22;5127954;27;45306;-70
2022/03/07 06:04:21;;;;;;;;;45.00;35.75;;;;;4.17;48.89;101791.31;5130434;27;45120;-68
2022/03/07 06:06:46;;;;;;;;;46.50;39.25;;;;;4.21;49.25;101790.72;5128133;27;45644;-69
2022/03/07 06:09:11;;;;;;;;;42.25;38.50;;;;;4.17;49.06;101791.31;5123295;27;45016;-69
2022/03/07 06:11:37;;;;;;;;;41.50;34.00;;;;;4.14;49.38;101790.19;5119675;27;45993;-69
2022/03/07 06:14:02;;;;;;;;;45.25;35.50;;;;;4.00;49.14;101779.59;5121206;27;45722;-68
2022/03/07 06:16:27;;;;;;;;;51.25;36.25;;;;;4.13;49.19;101801.59;5128029;27;45618;-70
2022/03/07 06:18:53;;;;;;;;;52.50;40.25;;;;;4.07;49.69;101802.06;5113232;27;45413;-68
2022/03/07 06:21:18;;;;;;;;;42.50;39.50;;;;;4.04;49.31;101799.22;5093855;27;47004;-70
2022/03/07 06:23:43;;;;;;;;;45.25;38.75;;;;;4.05;49.51;101803.72;5108373;27;46041;-68
2022/03/07 06:26:09;;;;;;;;;48.75;37.25;;;;;4.05;49.14;101798.41;5108239;27;45409;-68
2022/03/07 06:28:34;;;;;;;;;43.25;34.50;;;;;3.57;49.28;101712.25;5117223;27;45566;-66
2022/03/07 06:31:00;;;;;;;;;38.25;35.25;;;;;3.72;49.51;101739.75;5102051;27;46216;-68
2022/03/07 06:33:26;;;;;;;;;51.25;38.00;;;;;3.88;49.04;101771.72;5101158;27;45832;-68
2022/03/07 06:35:51;;;;;;;;;34.50;25.50;;;;;4.09;49.14;101802.19;5101772;27;45471;-68
2022/03/07 06:38:19;;;;;;;;;44.50;33.75;;;;;3.97;49.37;101789.94;5111827;27;45613;-70
2022/03/07 06:40:45;;;;;;;;;44.25;38.00;;;;;3.81;49.00;101757.94;5109964;27;46120;-69
2022/03/07 06:43:10;;;;;;;;;50.75;35.25;;;;;4.07;48.80;101804.72;5107528;27;45464;-70
2022/03/07 06:45:35;;;;;;;;;48.75;37.25;;;;;3.61;49.17;101722.22;5108411;27;46018;-69
2022/03/07 06:48:01;;;;;;;;;40.50;38.00;;;;;4.11;49.69;101814.72;5108190;27;45681;-69
2022/03/07 06:50:26;;;;;;;;;34.50;33.00;;;;;3.83;48.59;101765.19;5108466;27;45901;-69
2022/03/07 06:52:52;;;;;;;;;46.25;39.00;;;;;3.93;48.70;101795.84;5102828;27;45460;-68
2022/03/07 06:55:17;;;;;;;;;43.50;37.25;;;;;3.98;48.71;101788.22;5080778;27;45758;-69
2022/03/07 06:57:43;;;;;;;;;47.00;38.75;;;;;4.16;48.91;101813.31;5101021;27;45439;-68
2022/03/07 07:00:11;;;;;;;;;51.50;37.75;;;;;4.20;48.56;101809.13;5108431;27;45820;-70
2022/03/07 07:02:39;;;;;;;;;47.25;38.25;;;;;4.15;48.74;101813.19;5108373;27;45560;-70
2022/03/07 07:05:06;;;;;;;;;36.00;34.25;;;;;4.16;48.89;101807.09;5111981;27;45437;-68
2022/03/07 07:07:32;;;;;;;;;44.75;38.00;;;;;4.14;48.69;101799.06;5111772;27;45554;-68
2022/03/07 07:09:58;;;;;;;;;45.75;34.00;;;;;3.54;48.85;101690.91;5112533;27;45426;-70
2022/03/07 07:12:23;;;;;;;;;49.50;35.00;;;;;4.07;48.41;101788.84;5094865;27;45568;-69
2022/03/07 07:14:49;;;;;;;;;43.75;34.00;;;;;4.19;48.42;101813.53;5126892;27;46171;-69
2022/03/07 07:17:16;;;;;;;;;52.75;40.00;;;;;4.17;48.45;101811.56;5109647;27;45773;-69
2022/03/07 07:19:42;;;;;;;;;46.00;40.25;;;;;4.13;48.32;101810.44;5114486;27;45949;-70
2022/03/07 07:22:08;;;;;;;;;37.25;31.00;;;;;3.90;48.55;101776.22;5108525;27;45516;-70
2022/03/07 07:24:33;;;;;;;;;46.00;40.25;;;;;4.12;48.02;101816.53;5116143;27;45865;-69
2022/03/07 07:26:59;;;;;;;;;53.50;39.00;;;;;4.10;48.25;101804.94;5110070;27;45576;-70
2022/03/07 07:29:24;;;;;;;;;46.50;34.50;;;;;4.19;48.13;101810.88;5110719;27;46444;-69
2022/03/07 07:31:51;;;;;;;;;42.25;36.50;;;;;4.03;48.07;101789.47;5110300;27;45443;-70
2022/03/07 07:34:17;;;;;;;;;41.75;32.75;;;;;4.15;48.13;101807.91;5116816;27;45496;-70
2022/03/07 07:36:43;;;;;;;;;27.25;24.25;;;;;4.06;47.88;101793.25;5110549;27;45559;-70
2022/03/07 07:39:08;;;;;;;;;47.75;38.75;;;;;4.28;48.30;101805.28;5102316;27;45999;-69
2022/03/07 07:41:34;;;;;;;;;46.25;35.75;;;;;4.18;47.74;101798.44;5103533;27;45721;-69
2022/03/07 07:44:00;;;;;;;;;43.00;38.25;;;;;4.20;47.56;101812.69;5105500;27;45604;-70
2022/03/07 07:46:25;;;;;;;;;48.75;40.25;;;;;4.29;47.44;101827.38;5112197;27;45579;-69
2022/03/07 07:48:51;;;;;;;;;52.25;34.25;;;;;4.11;47.56;101785.63;5120572;27;46084;-68
2022/03/07 07:51:16;;;;;;;;;42.00;38.00;;;;;4.16;47.73;101792.16;5112548;27;45840;-70
2022/03/07 07:53:41;;;;;;;;;41.00;25.75;;;;;4.37;47.66;101811.22;5109398;27;45676;-70
2022/03/07 07:56:08;;;;;;;;;45.00;40.50;;;;;4.35;47.54;101796.94;5110708;27;45644;-69
2022/03/07 07:58:34;;;;;;;;;46.75;35.75;;;;;4.45;46.90;101803.78;5113020;27;45977;-70
2022/03/07 08:00:59;;;;;;;;;45.25;39.25;;;;;4.47;47.25;101794.25;5087734;27;45871;-68
2022/03/07 08:03:25;;;;;;;;;51.25;38.50;;;;;4.51;47.01;101804.22;5103145;27;46004;-70
2022/03/07 08:05:51;;;;;;;;;49.00;39.00;;;;;4.58;47.07;101808.19;5106702;27;45910;-70
2022/03/07 08:08:17;;;;;;;;;43.75;37.75;;;;;4.54;47.27;101796.50;5113096;27;46237;-69
2022/03/07 08:10:43;;;;;;;;;52.50;41.75;;;;;4.38;46.89;101754.84;5114024;27;45551;-69
2022/03/07 08:29:20;;;;;;;;;57.00;44.50;;;;;5.12;45.52;101815.31;5060844;27;45552;-70
2022/03/07 08:31:45;;;;;;;;;43.50;38.75;;;;;5.27;44.33;101803.91;5062840;28;45533;-70
2022/03/07 08:34:11;;;;;;;;;48.25;37.00;;;;;5.26;44.40;101781.81;5063098;28;45454;-70
2022/03/07 08:36:36;;;;;;;;;38.50;34.00;;;;;5.37;43.64;101808.06;5062900;28;45439;-70
2022/03/07 08:39:02;;;;;;;;;44.25;34.00;;;;;5.37;44.08;101789.53;5062070;28;46025;-68
2022/03/07 08:41:28;;;;;;;;;50.50;40.75;;;;;5.18;44.06;101767.16;5062319;28;45913;-70
2022/03/07 08:43:54;;;;;;;;;47.00;40.00;;;;;4.99;44.30;101718.25;5056073;28;45420;-70
2022/03/07 08:46:20;;;;;;;;;50.50;39.00;;;;;5.44;44.00;101791.72;5055323;28;46001;-70
2022/03/07 08:48:46;;;;;;;;;51.50;39.25;;;;;5.41;43.27;101791.53;5054387;28;45545;-69
2022/03/07 08:51:11;;;;;;;;;56.00;40.00;;;;;5.29;43.71;101758.13;5061219;28;45846;-71
2022/03/07 08:53:36;;;;;;;;;39.50;33.25;;;;;5.47;43.01;101787.53;5062592;28;45437;-70
2022/03/07 08:56:02;;;;;;;;;40.25;33.75;;;;;5.44;42.97;101782.03;5062375;28;45595;-70
2022/03/07 08:58:28;;;;;;;;;47.25;37.75;;;;;5.58;43.66;101780.28;5077601;27;46269;-71
2022/03/07 09:00:53;;;;;;;;;53.50;37.25;;;;;5.39;43.06;101746.38;5062315;28;45562;-71
2022/03/07 09:03:18;;;;;;;;;38.25;35.00;;;;;5.61;42.47;101777.81;5062158;27;45782;-70
2022/03/07 09:05:44;;;;;;;;;40.50;33.00;;;;;5.78;42.41;101786.81;5058429;27;45561;-70
2022/03/07 09:08:09;;;;;;;;;40.75;34.00;;;;;5.71;42.40;101777.56;5054216;28;45954;-70
2022/03/07 09:10:35;;;;;;;;;68.00;52.00;;;;;5.71;42.28;101784.63;5054184;28;45586;-70
2022/03/07 09:13:00;;;;;;;;;45.75;37.00;;;;;5.54;41.88;101744.72;5058902;28;45748;-70
2022/03/07 09:15:25;;;;;;;;;46.50;35.50;;;;;5.84;41.78;101763.34;5062810;28;45505;-70
2022/03/07 09:17:51;;;;;;;;;34.00;33.50;;;;;5.85;41.13;101774.88;5062231;28;46543;-69
2022/03/07 09:20:17;;;;;;;;;48.75;35.00;;;;;5.95;41.63;101771.94;5061995;28;45859;-70
2022/03/07 09:22:43;;;;;;;;;49.00;40.00;;;;;3.81;40.85;101388.84;5062233;28;45999;-69
2022/03/07 09:25:09;;;;;;;;;46.25;37.75;;;;;6.05;41.27;101784.06;5062169;28;45642;-70
2022/03/07 09:27:35;;;;;;;;;38.75;35.50;;;;;6.18;41.37;101767.19;5059917;28;46335;-68
2022/03/07 09:30:00;;;;;;;;;41.75;37.25;;;;;6.33;41.21;101783.09;5040724;28;45511;-69
2022/03/07 09:32:26;;;;;;;;;43.50;35.00;;;;;6.38;40.64;101774.59;5040921;28;45608;-69
2022/03/07 09:34:51;;;;;;;;;43.75;38.00;;;;;5.96;40.44;101701.28;5042684;28;45598;-70
2022/03/07 09:37:17;;;;;;;;;47.25;34.25;;;;;6.06;40.20;101699.28;5048435;28;45485;-69
2022/03/07 09:39:42;;;;;;;;;35.00;32.25;;;;;6.40;39.67;101750.78;5049053;28;45736;-70
2022/03/07 09:42:09;;;;;;;;;50.00;38.25;;;;;6.58;39.83;101757.22;5052350;28;45592;-70
2022/03/07 09:44:34;;;;;;;;;45.50;35.25;;;;;6.64;39.23;101768.16;5049436;28;45477;-69
2022/03/07 09:47:01;;;;;;;;;41.25;33.50;;;;;6.65;39.66;101763.78;5048271;28;46139;-71
2022/03/07 09:49:27;;;;;;;;;42.00;35.75;;;;;6.70;38.90;101751.69;5047791;28;45611;-71
2022/03/07 09:51:53;;;;;;;;;48.50;37.25;;;;;6.50;38.74;101744.28;5040575;28;45765;-70
2022/03/07 09:54:19;;;;;;;;;47.50;35.00;;;;;6.71;39.31;101763.22;5040424;28;45789;-70
2022/03/07 09:56:45;;;;;;;;;50.50;40.00;;;;;6.78;39.81;101758.38;5040709;28;46242;-71
2022/03/07 09:59:10;;;;;;;;;49.00;37.25;;;;;6.91;38.91;101751.09;5047222;28;45611;-70
2022/03/07 10:01:36;;;;;;;;;36.75;35.50;;;;;6.71;38.93;101702.13;5047656;28;45544;-70
2022/03/07 10:04:13;;;;;;;;;32.00;26.25;;;;;6.93;38.58;101709.56;5047695;28;45487;-70
2022/03/07 10:06:48;;;;;;;;;46.00;35.75;;;;;7.09;38.39;101720.25;5047246;28;46414;-69
2022/03/07 10:09:19;;;;;;;;;43.75;36.50;;;;;7.29;38.62;101739.97;5047311;28;45507;-69
2022/03/07 10:11:54;;;;;;;;;37.50;31.25;;;;;7.52;37.43;101750.94;5046577;28;45475;-72
2022/03/07 10:14:34;;;;;;;;;35.75;32.00;;;;;7.61;36.98;101750.56;5039821;28;45937;-70
2022/03/07 10:16:59;;;;;;;;;47.50;33.00;;;;;7.61;36.66;101740.81;5039869;28;45634;-68
2022/03/07 10:19:25;;;;;;;;;38.75;33.00;;;;;7.73;37.05;101728.16;5040811;28;45521;-69
2022/03/07 10:21:53;;;;;;;;;38.25;33.75;;;;;8.02;37.03;101738.53;5047291;28;45466;-70
2022/03/07 10:24:32;;;;;;;;;42.25;35.25;;;;;8.65;35.94;101737.41;5047644;28;45642;-69
2022/03/07 10:26:57;;;;;;;;;42.25;34.00;;;;;9.09;35.79;101699.50;5046006;28;47203;-69
2022/03/07 10:29:22;;;;;;;;;33.50;33.00;;;;;9.46;32.85;101671.91;5047604;28;45888;-70
2022/03/07 10:31:49;;;;;;;;;28.00;20.00;;;;;9.92;32.90;101708.69;5047853;28;45462;-71
2022/03/07 10:34:14;;;;;;;;;50.50;36.00;;;;;9.66;31.87;101724.41;5047314;28;45529;-69
2022/03/07 10:36:42;;;;;;;;;39.00;33.00;;;;;9.59;33.50;101724.97;5039570;28;46208;-70
2022/03/07 10:39:13;;;;;;;;;50.25;41.25;;;;;9.54;33.55;101707.84;5039404;28;45781;-70
2022/03/07 10:41:41;;;;;;;;;50.00;38.25;;;;;9.43;32.61;101711.78;5039579;28;45214;-70
2022/03/07 10:44:10;;;;;;;;;36.75;32.25;;;;;9.41;33.66;101709.03;5048405;28;45498;-70
2022/03/07 10:46:38;;;;;;;;;40.50;33.75;;;;;9.38;34.15;101715.13;5048016;28;46373;-70
2022/03/07 10:49:07;;;;;;;;;34.50;31.25;;;;;9.32;33.21;101719.25;5046324;28;45497;-69
2022/03/07 10:51:33;;;;;;;;;48.50;37.75;;;;;9.37;33.53;101718.66;5047217;28;45527;-69
2022/03/07 10:54:09;;;;;;;;;45.00;36.00;;;;;9.40;32.17;101709.88;5047740;28;45501;-69
2022/03/07 10:56:34;;;;;;;;;46.50;36.25;;;;;9.15;32.56;101684.72;5047115;28;46728;-69
2022/03/07 10:58:59;;;;;;;;;43.25;35.00;;;;;8.61;32.90;101611.97;5040518;28;45487;-70
2022/03/07 11:01:29;;;;;;;;;46.75;34.00;;;;;9.05;33.46;101695.78;5039709;28;45742;-70
2022/03/07 11:03:56;;;;;;;;;36.75;32.50;;;;;8.93;32.04;101681.91;5054959;27;45528;-70
2022/03/07 11:06:22;;;;;;;;;45.25;36.25;;;;;8.98;33.09;101686.59;5045489;28;47110;-69
2022/03/07 11:08:47;;;;;;;;;42.25;34.75;;;;;9.04;32.71;101700.22;5046966;28;45619;-69
2022/03/07 11:11:16;;;;;;;;;52.25;37.50;;;;;8.98;33.25;101672.34;5046310;28;45666;-68
2022/03/07 11:13:43;;;;;;;;;45.00;36.25;;;;;9.08;33.51;101695.03;5054645;28;46234;-68
2022/03/07 11:16:11;;;;;;;;;41.00;34.00;;;;;8.97;32.43;101666.09;5055428;28;46552;-69
2022/03/07 11:18:38;;;;;;;;;49.50;42.50;;;;;9.10;32.25;101680.94;5056808;28;45346;-70
2022/03/07 11:21:04;;;;;;;;;47.50;35.50;;;;;9.09;32.09;101673.78;5061585;28;45280;-70
2022/03/07 11:23:30;;;;;;;;;45.00;35.75;;;;;9.15;32.46;101673.16;5054609;28;46007;-68
2022/03/07 11:25:59;;;;;;;;;49.00;38.75;;;;;9.03;31.66;101660.16;5049020;28;45864;-69
2022/03/07 11:28:30;;;;;;;;;37.25;31.75;;;;;9.11;31.18;101672.09;5056935;28;45233;-71